Time;durP1;ratioP1;P1;durP2;ratioP2;P2;SDS_P1;SDS_P2;PMS_P1;PMS_P2;Temp;Humidity;BMP_temperature;BMP_pressure;BME280_temperature;BME280_humidity;BME280_pressure;Samples;Min_cycle;Max_cycle;Signal;HPM_P1;HPM_P2
2021/10/30 00:00:49;;;;;;;11.93;10.83;;;7.10;92.50;;;;;;5099830;28;20778;-88
2021/10/30 00:03:15;;;;;;;9.93;9.10;;;7.10;92.70;;;;;;5097529;28;20696;-88
2021/10/30 00:05:41;;;;;;;10.30;9.40;;;7.20;92.70;;;;;;5080752;28;20175;-88
2021/10/30 00:08:07;;;;;;;26.23;11.77;;;7.30;92.30;;;;;;5081788;28;20810;-89
2021/10/30 00:10:33;;;;;;;11.70;10.60;;;7.20;91.10;;;;;;5070948;28;20210;-89
2021/10/30 00:12:59;;;;;;;14.10;10.93;;;7.10;92.70;;;;;;5095334;28;20175;-88
2021/10/30 00:15:24;;;;;;;10.53;9.63;;;7.20;92.20;;;;;;5086858;28;20187;-89
2021/10/30 00:17:50;;;;;;;15.90;10.07;;;7.20;92.20;;;;;;5104471;28;20190;-88
2021/10/30 00:20:16;;;;;;;10.73;9.77;;;7.20;90.70;;;;;;5101179;28;20713;-88
2021/10/30 00:22:42;;;;;;;10.37;8.90;;;7.20;91.30;;;;;;5102895;28;20265;-88
2021/10/30 00:25:08;;;;;;;9.53;8.80;;;7.10;90.60;;;;;;5069756;28;20206;-88
2021/10/30 00:27:33;;;;;;;12.97;9.60;;;7.10;91.20;;;;;;5102260;28;20191;-89
2021/10/30 00:29:59;;;;;;;10.17;9.27;;;7.20;91.60;;;;;;5081966;28;20193;-88
2021/10/30 00:32:25;;;;;;;10.67;9.67;;;7.10;91.90;;;;;;5102036;28;20198;-88
2021/10/30 00:34:50;;;;;;;10.60;9.60;;;7.20;92.00;;;;;;5111449;28;20210;-88
2021/10/30 00:37:16;;;;;;;10.37;9.40;;;7.20;91.80;;;;;;5119287;28;20191;-87
2021/10/30 00:39:42;;;;;;;9.83;8.83;;;7.30;90.80;;;;;;5105315;28;20191;-88
2021/10/30 00:42:08;;;;;;;9.73;8.77;;;7.10;88.80;;;;;;5084679;28;20215;-88
2021/10/30 00:44:33;;;;;;;9.77;8.70;;;6.90;89.40;;;;;;5083341;28;20203;-88
2021/10/30 00:47:00;;;;;;;9.60;8.80;;;6.80;89.40;;;;;;5101799;28;20176;-88
2021/10/30 00:49:27;;;;;;;8.70;8.00;;;6.80;90.50;;;;;;5086566;28;20270;-88
2021/10/30 00:51:55;;;;;;;10.73;9.57;;;6.90;91.10;;;;;;5086682;28;20286;-88
2021/10/30 00:54:23;;;;;;;9.30;8.50;;;6.90;90.50;;;;;;5097229;28;20525;-89
2021/10/30 00:56:51;;;;;;;9.57;8.67;;;6.90;91.20;;;;;;5085885;28;20210;-89
2021/10/30 00:59:18;;;;;;;9.90;9.00;;;7.10;91.00;;;;;;5100282;28;20194;-88
2021/10/30 01:01:45;;;;;;;9.17;8.37;;;7.10;90.70;;;;;;5103868;28;20219;-89
2021/10/30 01:04:12;;;;;;;8.70;8.00;;;7.20;90.40;;;;;;5103180;28;20194;-88
2021/10/30 01:06:42;;;;;;;8.87;8.17;;;7.20;90.30;;;;;;5101414;28;20179;-89
2021/10/30 01:09:08;;;;;;;14.07;10.10;;;7.30;90.40;;;;;;5104509;28;20245;-88
2021/10/30 01:11:33;;;;;;;9.83;9.00;;;7.30;89.70;;;;;;5104066;28;20581;-89
2021/10/30 01:14:01;;;;;;;10.93;9.97;;;7.30;91.00;;;;;;5104442;28;20190;-88
2021/10/30 01:16:27;;;;;;;10.63;9.73;;;7.30;91.30;;;;;;5099870;28;20198;-89
2021/10/30 01:18:53;;;;;;;10.03;9.13;;;7.30;91.50;;;;;;5103526;28;20187;-89
2021/10/30 01:21:28;;;;;;;10.53;9.63;;;7.40;91.70;;;;;;5086323;28;20228;-88
2021/10/30 01:23:55;;;;;;;12.60;10.67;;;7.50;92.10;;;;;;5096172;28;20207;-89
2021/10/30 01:26:21;;;;;;;11.33;10.33;;;7.30;91.40;;;;;;5104905;28;20191;-88
2021/10/30 01:28:48;;;;;;;38.70;11.97;;;7.40;91.60;;;;;;5087043;28;20187;-88
2021/10/30 01:31:15;;;;;;;10.60;9.70;;;7.20;91.10;;;;;;5086350;28;20278;-88
2021/10/30 01:33:42;;;;;;;9.97;9.10;;;7.20;92.20;;;;;;5067862;28;20314;-88
2021/10/30 01:36:10;;;;;;;10.37;9.40;;;7.20;91.70;;;;;;5103402;28;20197;-89
2021/10/30 01:38:36;;;;;;;10.67;9.77;;;7.30;91.70;;;;;;5102994;28;20183;-88
2021/10/30 01:41:02;;;;;;;10.80;9.80;;;7.30;91.20;;;;;;5091584;28;20207;-88
2021/10/30 01:43:28;;;;;;;9.67;8.77;;;7.30;91.10;;;;;;5102658;28;20218;-88
2021/10/30 01:45:54;;;;;;;9.97;9.10;;;7.40;90.80;;;;;;5103507;28;20179;-88
2021/10/30 01:48:26;;;;;;;10.17;9.27;;;7.50;90.20;;;;;;5085179;28;20673;-88
2021/10/30 01:50:52;;;;;;;10.30;9.40;;;7.50;90.10;;;;;;5102974;28;20215;-88
2021/10/30 01:53:18;;;;;;;23.97;10.97;;;7.50;89.90;;;;;;5082622;28;20190;-88
2021/10/30 01:55:44;;;;;;;10.80;9.90;;;7.40;89.70;;;;;;5083224;28;20199;-88
2021/10/30 01:58:09;;;;;;;10.63;9.73;;;7.40;90.70;;;;;;5068019;28;20270;-88
2021/10/30 02:00:36;;;;;;;10.57;9.67;;;7.40;90.90;;;;;;5103068;28;20253;-88
2021/10/30 02:03:01;;;;;;;17.73;10.37;;;7.50;90.40;;;;;;5067857;28;20182;-89
2021/10/30 02:05:27;;;;;;;10.90;9.90;;;7.40;90.00;;;;;;5083765;28;20199;-88
2021/10/30 02:07:53;;;;;;;11.57;10.67;;;7.30;91.10;;;;;;5103291;28;20523;-88
2021/10/30 02:10:18;;;;;;;16.87;11.80;;;7.30;91.70;;;;;;5084735;28;20241;-88
2021/10/30 02:12:44;;;;;;;11.30;10.30;;;7.40;91.50;;;;;;5084589;28;20183;-89
2021/10/30 02:15:10;;;;;;;12.70;11.40;;;7.30;92.20;;;;;;5102675;28;20220;-88
2021/10/30 02:17:37;;;;;;;12.30;11.10;;;7.20;92.50;;;;;;5085095;28;20202;-89
2021/10/30 02:20:05;;;;;;;11.40;10.40;;;7.20;93.30;;;;;;5081902;28;20186;-88
2021/10/30 02:22:30;;;;;;;11.53;10.53;;;7.30;92.70;;;;;;5102013;28;20242;-88
2021/10/30 02:24:56;;;;;;;37.33;11.43;;;7.40;92.40;;;;;;5103110;28;20849;-89
2021/10/30 02:27:22;;;;;;;18.67;11.47;;;7.30;91.30;;;;;;5085032;28;20191;-88
2021/10/30 02:29:48;;;;;;;12.23;10.30;;;7.20;91.50;;;;;;5083765;28;20194;-89
2021/10/30 02:32:14;;;;;;;11.53;10.53;;;7.10;91.10;;;;;;5102459;28;20662;-89
2021/10/30 02:34:40;;;;;;;22.70;11.70;;;7.20;91.40;;;;;;5103154;28;20186;-88
2021/10/30 02:37:07;;;;;;;13.53;10.23;;;7.20;90.70;;;;;;5115379;27;20246;-87
2021/10/30 02:39:33;;;;;;;19.27;10.20;;;7.10;91.40;;;;;;5115160;27;20193;-87
2021/10/30 02:41:59;;;;;;;11.07;9.67;;;7.10;91.70;;;;;;5093123;28;20282;-88
2021/10/30 02:44:25;;;;;;;10.20;8.97;;;7.00;91.20;;;;;;5101186;28;20570;-89
2021/10/30 02:46:51;;;;;;;10.73;9.83;;;7.00;92.10;;;;;;5101707;28;20235;-88
2021/10/30 02:49:18;;;;;;;10.87;9.40;;;7.00;92.20;;;;;;5079307;28;20702;-88
2021/10/30 02:51:44;;;;;;;10.07;9.17;;;7.00;91.30;;;;;;5102941;28;20198;-88
2021/10/30 02:54:10;;;;;;;12.50;11.30;;;7.00;91.30;;;;;;5090567;28;20207;-89
2021/10/30 02:56:36;;;;;;;10.60;9.60;;;6.90;90.90;;;;;;5094884;28;20274;-89
2021/10/30 02:59:02;;;;;;;9.97;9.13;;;6.90;91.00;;;;;;5102393;28;20442;-89
2021/10/30 03:01:27;;;;;;;16.30;9.57;;;7.00;91.60;;;;;;5102600;28;20665;-89
2021/10/30 03:03:53;;;;;;;10.97;9.97;;;7.00;90.70;;;;;;5102368;28;20210;-89
2021/10/30 03:06:22;;;;;;;9.87;9.07;;;6.90;91.00;;;;;;5084967;28;20646;-89
2021/10/30 03:08:48;;;;;;;9.97;9.17;;;7.00;90.50;;;;;;5103665;28;20167;-89
2021/10/30 03:11:14;;;;;;;10.43;9.53;;;6.90;89.80;;;;;;5095125;28;20199;-89
2021/10/30 03:13:40;;;;;;;9.73;8.93;;;6.90;89.80;;;;;;5082169;28;20182;-89
2021/10/30 03:16:06;;;;;;;10.13;9.23;;;7.00;89.80;;;;;;5111633;28;20191;-89
2021/10/30 03:18:32;;;;;;;9.53;8.73;;;6.90;90.30;;;;;;5102424;28;20204;-89
2021/10/30 03:20:58;;;;;;;9.40;8.60;;;6.90;90.10;;;;;;5102435;28;20226;-89
2021/10/30 03:23:24;;;;;;;9.27;8.47;;;7.00;90.10;;;;;;5089374;28;20198;-91
2021/10/30 03:25:50;;;;;;;9.70;8.80;;;7.00;89.10;;;;;;5079919;28;20184;-90
2021/10/30 03:28:16;;;;;;;8.87;8.17;;;7.10;88.80;;;;;;5087719;28;20553;-89
2021/10/30 03:30:43;;;;;;;9.23;8.47;;;7.10;88.90;;;;;;5099706;28;20211;-89
2021/10/30 03:33:09;;;;;;;10.57;9.67;;;7.10;89.00;;;;;;5075677;28;20175;-90
2021/10/30 03:35:36;;;;;;;8.80;8.03;;;7.10;88.30;;;;;;5101058;28;20193;-91
2021/10/30 03:38:01;;;;;;;9.03;8.23;;;7.10;88.20;;;;;;5110455;28;20216;-89
2021/10/30 03:40:27;;;;;;;9.80;9.00;;;6.90;88.30;;;;;;5084153;28;20206;-89
2021/10/30 03:42:53;;;;;;;9.00;8.20;;;7.00;88.90;;;;;;5101876;28;20243;-89
2021/10/30 03:45:19;;;;;;;9.63;8.83;;;7.10;88.80;;;;;;5083692;28;20183;-89
2021/10/30 03:47:44;;;;;;;10.07;8.67;;;7.10;88.80;;;;;;5086119;28;20265;-89
2021/10/30 03:50:10;;;;;;;10.07;9.17;;;7.00;88.90;;;;;;5106833;28;20210;-89
2021/10/30 03:52:36;;;;;;;10.83;9.70;;;7.00;89.00;;;;;;5087718;28;20187;-89
2021/10/30 03:55:03;;;;;;;9.83;8.93;;;7.00;88.40;;;;;;5088292;28;20183;-89
2021/10/30 03:57:28;;;;;;;11.00;9.77;;;6.80;89.20;;;;;;5106560;28;20187;-88
2021/10/30 03:59:54;;;;;;;9.90;9.10;;;6.90;89.60;;;;;;5088518;28;20257;-89
2021/10/30 04:02:20;;;;;;;9.13;8.27;;;6.90;89.60;;;;;;5105646;28;20206;-89
2021/10/30 04:04:46;;;;;;;11.10;8.53;;;6.90;90.20;;;;;;5087868;28;20194;-89
2021/10/30 04:07:12;;;;;;;10.43;9.60;;;6.90;90.30;;;;;;5087200;28;20681;-89
2021/10/30 04:09:37;;;;;;;10.37;9.47;;;6.90;90.00;;;;;;5087426;28;20373;-89
2021/10/30 04:12:04;;;;;;;10.90;9.80;;;6.90;91.00;;;;;;5087040;28;20230;-89
2021/10/30 04:14:30;;;;;;;10.77;9.83;;;7.00;91.10;;;;;;5087308;28;20191;-89
2021/10/30 04:16:55;;;;;;;11.47;10.43;;;7.00;91.40;;;;;;5105296;28;20253;-89
2021/10/30 04:19:21;;;;;;;13.43;11.20;;;7.00;91.10;;;;;;5087099;28;20198;-89
2021/10/30 04:21:47;;;;;;;11.63;10.53;;;7.00;90.90;;;;;;5105021;28;20221;-89
2021/10/30 04:24:12;;;;;;;11.27;10.17;;;7.00;91.20;;;;;;5085771;28;20229;-89
2021/10/30 04:26:39;;;;;;;10.37;9.47;;;7.00;91.40;;;;;;5084124;28;20187;-89
2021/10/30 04:29:06;;;;;;;13.60;10.30;;;7.00;91.00;;;;;;5087590;28;20190;-89
2021/10/30 04:31:32;;;;;;;17.50;11.43;;;7.00;90.70;;;;;;5105963;28;20211;-89
2021/10/30 04:34:01;;;;;;;26.07;11.30;;;6.90;90.90;;;;;;5105642;28;20171;-89
2021/10/30 04:36:29;;;;;;;11.47;10.43;;;6.80;91.30;;;;;;5105304;28;20238;-89
2021/10/30 04:38:55;;;;;;;10.60;9.70;;;6.80;92.60;;;;;;5086323;28;20217;-89
2021/10/30 04:41:21;;;;;;;19.33;10.97;;;6.90;92.60;;;;;;5104674;28;20207;-89
2021/10/30 04:43:47;;;;;;;12.70;11.50;;;6.90;92.50;;;;;;5087832;28;20258;-89
2021/10/30 04:46:15;;;;;;;12.70;11.43;;;6.90;92.50;;;;;;5105628;28;20191;-89
2021/10/30 04:48:40;;;;;;;14.37;12.10;;;6.90;92.50;;;;;;5087810;28;20265;-89
2021/10/30 04:51:06;;;;;;;12.93;11.67;;;7.00;92.00;;;;;;5105528;28;20199;-89
2021/10/30 04:53:40;;;;;;;13.07;11.77;;;7.00;91.40;;;;;;5104429;28;20182;-89
2021/10/30 04:56:07;;;;;;;12.23;11.13;;;7.00;90.70;;;;;;5105032;28;20194;-90
2021/10/30 04:58:34;;;;;;;11.37;10.37;;;6.90;89.90;;;;;;5087104;28;20213;-89
2021/10/30 05:01:00;;;;;;;10.93;10.03;;;6.80;90.30;;;;;;5104259;28;20195;-89
2021/10/30 05:03:26;;;;;;;11.33;10.30;;;6.80;89.80;;;;;;5105057;28;20178;-89
2021/10/30 05:05:53;;;;;;;11.63;10.70;;;6.80;90.20;;;;;;5106500;28;20186;-89
2021/10/30 05:08:19;;;;;;;11.07;10.07;;;6.90;89.60;;;;;;5106269;28;20183;-89
2021/10/30 05:10:45;;;;;;;11.73;10.73;;;6.80;88.80;;;;;;5105251;28;20281;-89
2021/10/30 05:13:11;;;;;;;10.37;9.53;;;6.70;87.90;;;;;;5070747;28;20191;-90
2021/10/30 05:15:36;;;;;;;10.13;9.23;;;6.60;88.10;;;;;;5069611;28;20186;-89
2021/10/30 05:18:02;;;;;;;11.20;10.20;;;6.40;88.40;;;;;;5087549;28;20197;-89
2021/10/30 05:20:28;;;;;;;19.30;17.60;;;6.40;89.50;;;;;;5100056;28;20207;-89
2021/10/30 05:22:54;;;;;;;10.47;9.57;;;6.40;89.60;;;;;;5086381;28;20187;-89
2021/10/30 05:25:21;;;;;;;10.53;9.57;;;6.40;89.90;;;;;;5104113;28;20186;-89
2021/10/30 05:27:47;;;;;;;11.73;10.67;;;6.60;89.80;;;;;;5070013;28;20282;-89
2021/10/30 05:30:13;;;;;;;9.60;8.80;;;6.50;89.70;;;;;;5104231;28;20245;-89
2021/10/30 05:32:38;;;;;;;10.43;9.53;;;6.60;89.30;;;;;;5086868;28;20286;-89
2021/10/30 05:35:05;;;;;;;9.97;9.17;;;6.70;88.90;;;;;;5104416;28;20191;-90
2021/10/30 05:37:31;;;;;;;8.90;8.10;;;6.70;88.20;;;;;;5085751;28;20184;-89
2021/10/30 05:39:57;;;;;;;9.63;8.70;;;6.80;87.90;;;;;;5104047;28;20193;-90
2021/10/30 05:42:23;;;;;;;8.43;7.77;;;6.70;87.90;;;;;;5104018;28;20222;-89
2021/10/30 05:44:49;;;;;;;9.33;8.60;;;6.80;87.90;;;;;;5104202;28;20275;-89
2021/10/30 05:47:15;;;;;;;10.83;9.83;;;6.80;88.10;;;;;;5085763;28;20183;-89
2021/10/30 05:49:43;;;;;;;10.93;10.03;;;6.80;88.20;;;;;;5085823;28;20195;-89
2021/10/30 05:52:10;;;;;;;10.90;9.90;;;6.80;88.70;;;;;;5103700;28;20202;-89
2021/10/30 05:54:36;;;;;;;13.93;9.97;;;6.70;88.90;;;;;;5069702;28;20338;-89
2021/10/30 05:57:03;;;;;;;10.87;9.93;;;6.70;89.20;;;;;;5103532;28;20171;-89
2021/10/30 05:59:30;;;;;;;12.13;11.03;;;6.70;90.30;;;;;;5085790;28;20190;-88
2021/10/30 06:01:56;;;;;;;10.90;9.80;;;6.60;90.50;;;;;;5088109;28;20214;-89
2021/10/30 06:04:22;;;;;;;11.43;10.23;;;6.60;91.40;;;;;;5100522;28;20205;-88
2021/10/30 06:06:48;;;;;;;11.67;10.57;;;6.50;92.00;;;;;;5100362;28;20273;-89
2021/10/30 06:09:14;;;;;;;13.83;12.63;;;6.40;92.20;;;;;;5080855;28;20228;-90
2021/10/30 06:11:40;;;;;;;11.87;10.67;;;6.50;92.30;;;;;;5099090;28;20566;-90
2021/10/30 06:14:07;;;;;;;11.67;10.57;;;6.50;93.20;;;;;;5094142;28;20187;-91
2021/10/30 06:16:33;;;;;;;11.83;10.73;;;6.50;92.70;;;;;;5117218;28;20167;-92
2021/10/30 06:18:59;;;;;;;12.50;10.57;;;6.40;93.20;;;;;;5083249;28;20182;-92
2021/10/30 06:21:27;;;;;;;10.80;9.80;;;6.40;92.90;;;;;;5080355;28;20226;-92
2021/10/30 06:23:54;;;;;;;13.40;12.20;;;6.40;93.20;;;;;;5117433;28;20223;-92
2021/10/30 06:26:26;;;;;;;14.33;13.13;;;6.50;92.70;;;;;;5100335;28;20201;-92
2021/10/30 06:28:55;;;;;;;13.23;11.93;;;6.50;92.80;;;;;;5075795;28;20189;-92
2021/10/30 06:31:24;;;;;;;11.10;10.10;;;6.50;93.10;;;;;;5106070;28;20218;-91
2021/10/30 06:33:51;;;;;;;11.03;10.03;;;6.60;93.10;;;;;;5100824;28;20260;-90
2021/10/30 06:36:16;;;;;;;10.83;9.73;;;6.70;92.30;;;;;;5081085;28;20187;-91
2021/10/30 06:38:42;;;;;;;11.00;10.03;;;6.70;92.30;;;;;;5079988;28;20262;-91
2021/10/30 06:41:11;;;;;;;11.63;10.43;;;6.70;92.30;;;;;;5097876;28;20238;-91
2021/10/30 06:43:45;;;;;;;10.07;9.17;;;6.70;92.60;;;;;;5064026;28;20187;-91
2021/10/30 06:46:14;;;;;;;11.83;10.73;;;6.80;92.60;;;;;;5080092;28;20190;-91
2021/10/30 06:48:39;;;;;;;12.23;11.07;;;6.80;93.30;;;;;;5063876;28;20187;-91
2021/10/30 06:51:06;;;;;;;10.90;9.97;;;6.90;93.00;;;;;;5079391;28;20214;-91
2021/10/30 06:53:32;;;;;;;10.23;9.30;;;6.90;93.00;;;;;;5078012;28;20183;-90
2021/10/30 06:55:58;;;;;;;10.67;9.60;;;6.80;93.00;;;;;;5098816;28;20182;-90
2021/10/30 06:58:31;;;;;;;12.33;11.17;;;6.90;92.90;;;;;;5062452;28;20195;-90
2021/10/30 07:00:57;;;;;;;11.30;10.30;;;6.80;93.50;;;;;;5079436;28;20206;-90
2021/10/30 07:03:23;;;;;;;11.23;10.23;;;6.80;94.10;;;;;;5079768;28;20179;-90
2021/10/30 07:05:49;;;;;;;10.90;9.77;;;7.00;94.10;;;;;;5079066;28;20183;-90
2021/10/30 07:08:15;;;;;;;11.10;10.00;;;7.10;94.30;;;;;;5079543;28;20288;-90
2021/10/30 07:10:40;;;;;;;11.73;10.63;;;7.10;93.60;;;;;;5097074;28;20218;-90
2021/10/30 07:13:06;;;;;;;11.60;10.40;;;7.20;93.60;;;;;;5097140;28;20652;-90
2021/10/30 07:15:32;;;;;;;10.97;9.93;;;7.20;93.80;;;;;;5079707;28;20233;-90
2021/10/30 07:17:58;;;;;;;10.70;9.70;;;7.00;94.80;;;;;;5079557;28;20195;-90
2021/10/30 07:20:25;;;;;;;11.30;10.20;;;7.00;94.70;;;;;;5098221;28;20715;-90
2021/10/30 07:22:51;;;;;;;10.50;9.53;;;7.00;94.60;;;;;;5078956;28;20302;-90
2021/10/30 07:25:20;;;;;;;11.13;10.13;;;7.10;94.20;;;;;;5098843;28;20340;-90
2021/10/30 07:27:47;;;;;;;10.77;9.87;;;7.10;93.60;;;;;;5097755;28;20242;-91
2021/10/30 07:30:14;;;;;;;10.63;9.53;;;7.10;94.00;;;;;;5097211;28;20669;-90
2021/10/30 07:32:40;;;;;;;11.80;10.40;;;7.20;93.80;;;;;;5096496;28;20179;-90
2021/10/30 07:35:06;;;;;;;10.40;9.40;;;7.10;94.20;;;;;;5097188;28;20171;-91
2021/10/30 07:37:33;;;;;;;11.33;10.33;;;7.20;94.00;;;;;;5079433;28;20505;-90
2021/10/30 07:39:59;;;;;;;10.37;9.43;;;7.10;94.30;;;;;;5079405;28;20204;-91
2021/10/30 07:42:25;;;;;;;10.90;9.90;;;7.10;94.30;;;;;;5104357;28;20241;-90
2021/10/30 07:44:52;;;;;;;12.50;11.10;;;7.00;94.30;;;;;;5090265;28;20182;-90
2021/10/30 07:47:18;;;;;;;11.40;10.40;;;6.90;94.70;;;;;;5087844;28;20258;-90
2021/10/30 07:49:44;;;;;;;11.33;10.30;;;6.80;96.00;;;;;;5078593;28;20222;-90
2021/10/30 07:52:11;;;;;;;15.27;10.77;;;6.90;95.70;;;;;;5077999;28;20221;-90
2021/10/30 07:54:39;;;;;;;10.87;9.77;;;6.80;95.90;;;;;;5078705;28;20303;-90
2021/10/30 07:57:07;;;;;;;11.07;10.07;;;6.90;95.60;;;;;;5096426;28;20194;-90
2021/10/30 07:59:32;;;;;;;11.17;10.07;;;6.90;94.60;;;;;;5061559;28;20194;-90
2021/10/30 08:02:02;;;;;;;10.90;9.90;;;6.80;94.90;;;;;;5096746;28;20203;-90
2021/10/30 08:04:29;;;;;;;14.57;11.40;;;6.70;96.00;;;;;;5078074;28;20190;-90
2021/10/30 08:06:55;;;;;;;11.83;10.73;;;6.70;96.10;;;;;;5078199;28;20262;-90
2021/10/30 08:09:21;;;;;;;13.33;10.17;;;6.70;96.20;;;;;;5096161;28;20850;-90
2021/10/30 08:11:47;;;;;;;11.20;10.10;;;6.70;96.30;;;;;;5096448;28;20202;-90
2021/10/30 08:14:13;;;;;;;13.33;11.23;;;6.70;96.90;;;;;;5077453;28;20187;-91
2021/10/30 08:16:38;;;;;;;11.50;10.40;;;6.80;95.80;;;;;;5060583;28;20668;-91
2021/10/30 08:19:05;;;;;;;12.03;10.93;;;6.90;93.70;;;;;;5076360;28;20574;-91
2021/10/30 08:21:31;;;;;;;10.33;9.43;;;6.90;94.70;;;;;;5076492;28;20221;-91
2021/10/30 08:23:57;;;;;;;10.73;9.83;;;6.90;94.60;;;;;;5063773;28;20677;-91
2021/10/30 08:26:29;;;;;;;10.47;9.37;;;7.00;93.80;;;;;;5099669;28;20194;-91
2021/10/30 08:28:54;;;;;;;10.50;9.60;;;7.10;93.80;;;;;;5081320;28;20232;-91
2021/10/30 08:31:20;;;;;;;10.50;9.60;;;7.20;92.80;;;;;;5062860;28;20207;-90
2021/10/30 08:33:46;;;;;;;11.07;9.97;;;7.30;92.30;;;;;;5100422;28;20273;-90
2021/10/30 08:36:12;;;;;;;11.60;10.50;;;7.40;92.10;;;;;;5101665;28;20179;-90
2021/10/30 08:38:38;;;;;;;9.73;8.90;;;7.40;91.30;;;;;;5091924;28;20183;-90
2021/10/30 08:41:05;;;;;;;9.70;8.90;;;7.40;91.20;;;;;;5099191;28;20282;-90
2021/10/30 08:43:31;;;;;;;9.67;8.87;;;7.50;91.20;;;;;;5112586;28;20249;-90
2021/10/30 08:45:58;;;;;;;9.87;8.97;;;7.40;92.10;;;;;;5091475;28;20246;-91
2021/10/30 08:48:27;;;;;;;10.27;9.37;;;7.60;90.90;;;;;;5070762;28;20178;-91
2021/10/30 08:50:54;;;;;;;9.77;8.77;;;7.60;90.40;;;;;;5069829;28;20228;-91
2021/10/30 08:53:21;;;;;;;10.67;9.57;;;7.60;90.60;;;;;;5075777;28;20183;-90
2021/10/30 08:55:52;;;;;;;11.83;10.83;;;7.70;89.80;;;;;;5096019;28;20183;-90
2021/10/30 08:58:20;;;;;;;11.93;10.83;;;7.70;89.80;;;;;;5097702;28;20195;-89
2021/10/30 09:01:01;;;;;;;11.13;10.13;;;7.60;90.10;;;;;;5095933;28;20194;-89
2021/10/30 09:03:27;;;;;;;13.57;11.13;;;7.60;91.30;;;;;;5103146;28;20199;-88
2021/10/30 09:05:55;;;;;;;14.13;10.90;;;7.60;91.30;;;;;;5104718;28;20183;-88
2021/10/30 09:08:28;;;;;;;11.70;10.53;;;7.60;91.30;;;;;;5082924;28;20189;-89
2021/10/30 09:11:08;;;;;;;11.93;10.83;;;7.60;91.50;;;;;;5084355;28;20290;-88
2021/10/30 09:13:36;;;;;;;11.23;10.23;;;7.60;92.20;;;;;;5102589;28;20233;-89
2021/10/30 09:16:03;;;;;;;11.80;10.70;;;7.60;91.30;;;;;;5085797;28;20313;-89
2021/10/30 09:18:31;;;;;;;11.83;10.63;;;7.40;91.50;;;;;;5068075;28;20195;-89
2021/10/30 09:21:14;;;;;;;11.27;10.27;;;7.40;92.20;;;;;;5084788;28;20218;-90
2021/10/30 09:23:52;;;;;;;11.13;10.13;;;7.50;92.00;;;;;;5102680;28;20191;-89
2021/10/30 09:26:27;;;;;;;11.70;10.60;;;7.60;91.40;;;;;;5070897;28;20175;-90
2021/10/30 09:29:08;;;;;;;14.27;12.73;;;7.70;91.20;;;;;;5067144;28;20183;-90
2021/10/30 09:31:34;;;;;;;11.27;9.67;;;7.70;90.80;;;;;;5099328;28;20619;-91
2021/10/30 09:34:04;;;;;;;27.60;24.77;;;7.70;91.30;;;;;;5069316;28;20195;-90
2021/10/30 09:36:33;;;;;;;12.47;11.27;;;7.80;91.70;;;;;;5104420;28;20175;-91
2021/10/30 09:39:07;;;;;;;13.70;12.13;;;7.80;91.80;;;;;;5102161;28;20186;-91
2021/10/30 09:41:44;;;;;;;13.10;11.67;;;7.80;91.60;;;;;;5084028;28;20288;-88
2021/10/30 09:44:17;;;;;;;15.27;13.00;;;7.60;93.00;;;;;;5102335;28;20289;-89
2021/10/30 09:46:53;;;;;;;18.47;13.23;;;7.60;93.10;;;;;;5087360;28;20256;-90
2021/10/30 09:49:36;;;;;;;17.33;11.60;;;7.60;93.40;;;;;;5103204;28;20191;-89
2021/10/30 09:52:05;;;;;;;12.83;11.73;;;7.70;93.00;;;;;;5070637;28;20225;-90
2021/10/30 09:54:37;;;;;;;12.47;11.30;;;7.50;94.00;;;;;;5100776;27;20178;-91
2021/10/30 09:57:06;;;;;;;13.90;12.63;;;7.50;94.40;;;;;;5101010;28;20186;-89
2021/10/30 09:59:34;;;;;;;15.40;14.17;;;7.40;95.00;;;;;;5107456;28;20277;-91
2021/10/30 10:02:02;;;;;;;13.00;11.80;;;7.60;95.90;;;;;;5080131;28;20749;-92
2021/10/30 10:04:28;;;;;;;12.73;11.63;;;7.70;95.20;;;;;;5079249;28;20229;-94
2021/10/30 10:07:00;;;;;;;13.60;12.23;;;7.70;96.20;;;;;;5087287;28;20190;-92
2021/10/30 10:09:26;;;;;;;13.57;12.37;;;7.60;95.90;;;;;;5106234;28;20199;-94
2021/10/30 10:11:53;;;;;;;14.03;12.63;;;7.60;95.30;;;;;;5087922;28;20573;-93
2021/10/30 10:14:21;;;;;;;12.43;11.33;;;7.60;96.20;;;;;;5069624;28;20191;-93
2021/10/30 10:16:51;;;;;;;44.37;41.37;;;7.50;96.30;;;;;;5087262;28;20186;-94
2021/10/30 10:19:21;;;;;;;13.70;12.50;;;7.60;96.50;;;;;;5086724;28;20637;-94
2021/10/30 10:21:52;;;;;;;16.70;13.23;;;7.60;96.80;;;;;;5069916;28;20203;-94
2021/10/30 10:24:31;;;;;;;12.10;11.00;;;7.60;96.70;;;;;;5086029;28;20198;-94
2021/10/30 10:27:02;;;;;;;14.90;13.50;;;7.60;97.00;;;;;;5090160;28;20209;-94
2021/10/30 10:29:42;;;;;;;13.30;12.10;;;7.70;95.90;;;;;;5074066;28;20195;-92
2021/10/30 10:32:10;;;;;;;12.57;11.43;;;7.80;95.30;;;;;;5093728;28;20297;-94
2021/10/30 10:34:42;;;;;;;14.20;12.47;;;7.70;95.60;;;;;;5099933;28;20277;-94
2021/10/30 10:37:17;;;;;;;12.37;11.27;;;7.70;96.50;;;;;;5064774;28;20198;-95
2021/10/30 10:39:54;;;;;;;12.33;11.23;;;7.50;97.20;;;;;;5133862;22;20237;-89
2021/10/30 10:43:09;;;;;;;11.97;10.87;;;7.50;97.20;;;;;;5068154;28;20226;-90
2021/10/30 10:45:53;;;;;;;16.87;15.33;;;7.60;97.80;;;;;;5095371;28;20226;-89
2021/10/30 10:48:42;;;;;;;13.40;12.03;;;7.70;96.60;;;;;;5078359;28;20183;-89
2021/10/30 10:51:52;;;;;;;13.37;12.10;;;7.80;96.00;;;;;;5084736;28;20191;-89
2021/10/30 10:58:17;;;;;;;11.80;10.70;;;8.00;95.70;;;;;;5083885;28;20179;-90
2021/10/30 11:02:02;;;;;;;13.53;12.23;;;7.90;95.90;;;;;;5092781;28;20190;-90
2021/10/30 11:04:46;;;;;;;;;;;;;;;;;;;;;
2021/10/30 11:07:54;;;;;;;12.77;11.67;;;8.00;96.00;;;;;;5059399;28;20236;-90
2021/10/30 11:10:42;;;;;;;15.17;13.83;;;8.00;95.60;;;;;;5081280;28;20183;-90
2021/10/30 11:16:46;;;;;;;12.40;11.20;;;7.90;96.50;;;;;;5089301;28;20266;-90
2021/10/30 11:19:57;;;;;;;11.73;10.67;;;7.80;96.70;;;;;;5077737;28;20251;-90
2021/10/30 11:26:27;;;;;;;;;;;;;;;;;;;;;
2021/10/30 11:29:41;;;;;;;13.13;11.87;;;8.00;96.20;;;;;;5034706;28;20256;-90
2021/10/30 11:33:03;;;;;;;12.23;11.10;;;8.00;96.40;;;;;;4989327;28;20193;-90
2021/10/30 11:43:10;;;;;;;;;;;;;;;;;;;;;
2021/10/30 11:53:30;;;;;;;;;;;;;;;;;;;;;
2021/10/30 12:03:33;;;;;;;14.83;13.43;;;8.40;93.80;;;;;;5067904;28;20215;-89
2021/10/30 12:14:09;;;;;;;12.47;11.27;;;8.30;95.30;;;;;;4991469;28;20352;-91
2021/10/30 12:24:52;;;;;;;;;;;;;;;;;;;;;
2021/10/30 12:49:07;;;;;;;17.13;15.57;;;7.90;99.50;;;;;;5386833;22;20381;-90
2021/10/30 12:51:50;;;;;;;16.90;15.40;;;8.00;98.90;;;;;;5078669;28;20211;-90
2021/10/30 13:12:27;;;;;;;17.17;15.57;;;7.80;99.90;;;;;;4945457;29;20202;-90
2021/10/30 14:11:53;;;;;;;21.27;19.40;;;8.70;98.60;;;;;;1212634;22;20525;-90
2021/10/30 14:14:46;;;;;;;21.27;19.37;;;8.60;98.50;;;;;;5066521;28;20211;-91
2021/10/30 14:37:01;;;;;;;17.87;16.20;;;8.80;99.00;;;;;;5073578;28;20201;-90
2021/10/30 14:39:27;;;;;;;20.73;18.77;;;8.70;98.80;;;;;;5064994;28;20185;-90
2021/10/30 14:41:56;;;;;;;24.40;22.13;;;8.80;98.60;;;;;;5067344;28;20208;-92
2021/10/30 15:02:09;;;;;;;22.03;20.33;;;9.00;98.00;;;;;;5047137;28;20229;-91
2021/10/30 15:04:42;;;;;;;18.57;17.03;;;9.10;97.10;;;;;;5039022;28;20198;-91
2021/10/30 15:07:17;;;;;;;18.63;16.83;;;9.20;97.80;;;;;;5039029;28;20225;-91
2021/10/30 15:09:45;;;;;;;21.67;19.87;;;9.10;97.60;;;;;;5016723;28;20299;-90
2021/10/30 15:12:11;;;;;;;19.10;17.50;;;9.10;97.70;;;;;;5031426;28;20552;-90
2021/10/30 15:14:37;;;;;;;22.70;20.90;;;9.00;98.00;;;;;;5056198;28;20216;-92
2021/10/30 15:17:07;;;;;;;16.50;15.00;;;9.00;98.60;;;;;;5032987;28;20283;-92
2021/10/30 15:19:33;;;;;;;18.33;16.73;;;8.90;99.20;;;;;;5031514;28;20325;-90
2021/10/30 15:22:01;;;;;;;16.90;15.40;;;9.00;98.90;;;;;;5033640;28;20216;-90
2021/10/30 15:24:26;;;;;;;18.13;16.43;;;9.00;98.50;;;;;;5016993;28;20208;-88
2021/10/30 15:26:52;;;;;;;18.17;16.47;;;9.00;98.60;;;;;;5047701;28;20180;-90
2021/10/30 15:29:18;;;;;;;17.50;16.00;;;9.00;98.10;;;;;;5029312;28;20246;-93
2021/10/30 15:31:52;;;;;;;16.63;15.23;;;9.10;97.70;;;;;;5050332;28;20272;-91
2021/10/30 15:34:19;;;;;;;16.53;15.03;;;9.10;97.80;;;;;;5015283;28;20213;-91
2021/10/30 15:36:45;;;;;;;17.40;15.83;;;9.10;97.50;;;;;;5051142;28;20201;-92
2021/10/30 15:39:10;;;;;;;17.23;15.77;;;9.00;97.30;;;;;;5050022;28;20196;-90
2021/10/30 15:41:36;;;;;;;16.47;15.07;;;8.90;98.10;;;;;;5048109;28;20212;-90
2021/10/30 15:44:04;;;;;;;16.03;14.43;;;8.90;98.20;;;;;;5027570;28;20199;-90
2021/10/30 15:46:29;;;;;;;16.80;15.20;;;8.90;98.90;;;;;;5047827;28;20247;-90
2021/10/30 15:48:55;;;;;;;16.73;15.33;;;9.00;97.40;;;;;;5045467;28;20202;-89
2021/10/30 15:51:21;;;;;;;19.73;18.03;;;9.10;97.10;;;;;;5047916;28;20248;-91
2021/10/30 15:53:47;;;;;;;17.70;16.07;;;9.10;97.50;;;;;;5027624;28;20189;-89
2021/10/30 15:56:13;;;;;;;17.13;15.50;;;8.90;98.70;;;;;;5059651;28;20266;-91
2021/10/30 15:58:39;;;;;;;15.90;14.60;;;8.90;99.20;;;;;;5047990;28;20195;-90
2021/10/30 16:01:08;;;;;;;16.87;15.40;;;9.00;98.50;;;;;;5047121;28;20212;-89